sensor_id;sensor_type;location;lat;lon;timestamp;P1;durP1;ratioP1;P2;durP2;ratioP2
22480;SDS011;11407;56.964;-2.212;2022-12-26T00:01:35;5.10;;;1.53;;
22480;SDS011;11407;56.964;-2.212;2022-12-26T00:04:02;3.50;;;1.40;;
22480;SDS011;11407;56.964;-2.212;2022-12-26T00:06:29;3.87;;;1.40;;
22480;SDS011;11407;56.964;-2.212;2022-12-26T00:08:55;5.10;;;1.30;;
22480;SDS011;11407;56.964;-2.212;2022-12-26T00:11:22;4.53;;;1.20;;
22480;SDS011;11407;56.964;-2.212;2022-12-26T00:13:55;3.70;;;1.10;;
22480;SDS011;11407;56.964;-2.212;2022-12-26T00:16:22;2.30;;;1.10;;
22480;SDS011;11407;56.964;-2.212;2022-12-26T00:18:49;3.07;;;1.30;;
22480;SDS011;11407;56.964;-2.212;2022-12-26T00:21:15;2.37;;;0.97;;
22480;SDS011;11407;56.964;-2.212;2022-12-26T00:23:42;1.93;;;1.17;;
22480;SDS011;11407;56.964;-2.212;2022-12-26T00:26:09;4.77;;;1.27;;
22480;SDS011;11407;56.964;-2.212;2022-12-26T00:28:37;3.87;;;1.10;;
22480;SDS011;11407;56.964;-2.212;2022-12-26T00:31:10;4.63;;;1.30;;
22480;SDS011;11407;56.964;-2.212;2022-12-26T00:33:41;2.50;;;0.90;;
22480;SDS011;11407;56.964;-2.212;2022-12-26T00:36:08;5.50;;;0.90;;
22480;SDS011;11407;56.964;-2.212;2022-12-26T00:38:39;4.33;;;1.00;;
22480;SDS011;11407;56.964;-2.212;2022-12-26T00:41:08;4.87;;;1.07;;
22480;SDS011;11407;56.964;-2.212;2022-12-26T00:43:34;2.27;;;0.90;;
22480;SDS011;11407;56.964;-2.212;2022-12-26T00:46:00;4.07;;;1.27;;
22480;SDS011;11407;56.964;-2.212;2022-12-26T00:48:26;3.73;;;1.00;;
22480;SDS011;11407;56.964;-2.212;2022-12-26T00:50:51;2.87;;;0.90;;
22480;SDS011;11407;56.964;-2.212;2022-12-26T00:53:17;4.10;;;0.90;;
22480;SDS011;11407;56.964;-2.212;2022-12-26T00:55:43;2.07;;;0.80;;
22480;SDS011;11407;56.964;-2.212;2022-12-26T00:58:08;2.53;;;0.97;;
22480;SDS011;11407;56.964;-2.212;2022-12-26T01:00:34;5.47;;;1.00;;
22480;SDS011;11407;56.964;-2.212;2022-12-26T01:03:00;5.47;;;0.70;;
22480;SDS011;11407;56.964;-2.212;2022-12-26T01:05:26;1.83;;;0.70;;
22480;SDS011;11407;56.964;-2.212;2022-12-26T01:07:51;3.23;;;0.63;;
22480;SDS011;11407;56.964;-2.212;2022-12-26T01:10:17;1.93;;;0.73;;
22480;SDS011;11407;56.964;-2.212;2022-12-26T01:12:43;1.47;;;0.70;;
22480;SDS011;11407;56.964;-2.212;2022-12-26T01:15:08;5.03;;;0.90;;
22480;SDS011;11407;56.964;-2.212;2022-12-26T01:17:34;3.80;;;0.90;;
22480;SDS011;11407;56.964;-2.212;2022-12-26T01:20:00;1.47;;;0.83;;
22480;SDS011;11407;56.964;-2.212;2022-12-26T01:22:26;3.73;;;0.63;;
22480;SDS011;11407;56.964;-2.212;2022-12-26T01:24:55;1.10;;;0.80;;
22480;SDS011;11407;56.964;-2.212;2022-12-26T01:27:22;1.83;;;0.73;;
22480;SDS011;11407;56.964;-2.212;2022-12-26T01:29:49;2.20;;;0.70;;
22480;SDS011;11407;56.964;-2.212;2022-12-26T01:32:15;2.63;;;0.87;;
22480;SDS011;11407;56.964;-2.212;2022-12-26T01:34:40;1.77;;;0.57;;
22480;SDS011;11407;56.964;-2.212;2022-12-26T01:37:06;3.80;;;0.70;;
22480;SDS011;11407;56.964;-2.212;2022-12-26T01:39:31;3.40;;;0.70;;
22480;SDS011;11407;56.964;-2.212;2022-12-26T01:41:57;3.87;;;1.10;;
22480;SDS011;11407;56.964;-2.212;2022-12-26T01:47:19;0.93;;;0.80;;
22480;SDS011;11407;56.964;-2.212;2022-12-26T01:49:51;2.23;;;0.63;;
22480;SDS011;11407;56.964;-2.212;2022-12-26T01:52:29;1.87;;;0.80;;
22480;SDS011;11407;56.964;-2.212;2022-12-26T01:55:04;2.87;;;0.73;;
22480;SDS011;11407;56.964;-2.212;2022-12-26T01:57:38;2.57;;;0.60;;
22480;SDS011;11407;56.964;-2.212;2022-12-26T02:00:07;2.50;;;0.70;;
22480;SDS011;11407;56.964;-2.212;2022-12-26T02:02:32;0.53;;;0.43;;
22480;SDS011;11407;56.964;-2.212;2022-12-26T02:05:18;1.53;;;0.60;;
22480;SDS011;11407;56.964;-2.212;2022-12-26T02:08:02;2.83;;;0.60;;
22480;SDS011;11407;56.964;-2.212;2022-12-26T02:10:47;0.87;;;0.40;;
22480;SDS011;11407;56.964;-2.212;2022-12-26T02:13:16;2.37;;;0.47;;
22480;SDS011;11407;56.964;-2.212;2022-12-26T02:15:43;4.33;;;0.63;;
22480;SDS011;11407;56.964;-2.212;2022-12-26T02:18:09;1.33;;;0.63;;
22480;SDS011;11407;56.964;-2.212;2022-12-26T02:29:10;2.13;;;0.50;;
22480;SDS011;11407;56.964;-2.212;2022-12-26T02:31:49;3.13;;;0.70;;
22480;SDS011;11407;56.964;-2.212;2022-12-26T02:34:33;1.33;;;0.60;;
22480;SDS011;11407;56.964;-2.212;2022-12-26T02:45:42;4.13;;;0.80;;
22480;SDS011;11407;56.964;-2.212;2022-12-26T02:48:46;0.70;;;0.50;;
22480;SDS011;11407;56.964;-2.212;2022-12-26T02:51:26;0.83;;;0.43;;
22480;SDS011;11407;56.964;-2.212;2022-12-26T02:57:24;1.30;;;0.63;;
22480;SDS011;11407;56.964;-2.212;2022-12-26T03:00:24;3.47;;;0.70;;
22480;SDS011;11407;56.964;-2.212;2022-12-26T03:03:15;0.83;;;0.50;;
22480;SDS011;11407;56.964;-2.212;2022-12-26T03:06:04;1.50;;;0.60;;
22480;SDS011;11407;56.964;-2.212;2022-12-26T03:08:56;1.30;;;0.67;;
22480;SDS011;11407;56.964;-2.212;2022-12-26T03:11:47;3.67;;;0.77;;
22480;SDS011;11407;56.964;-2.212;2022-12-26T03:14:41;1.57;;;0.60;;
22480;SDS011;11407;56.964;-2.212;2022-12-26T03:17:14;0.93;;;0.50;;
22480;SDS011;11407;56.964;-2.212;2022-12-26T03:19:53;0.37;;;0.23;;
22480;SDS011;11407;56.964;-2.212;2022-12-26T03:25:22;1.20;;;0.43;;
22480;SDS011;11407;56.964;-2.212;2022-12-26T03:28:23;1.77;;;0.40;;
22480;SDS011;11407;56.964;-2.212;2022-12-26T03:30:49;2.70;;;0.60;;
22480;SDS011;11407;56.964;-2.212;2022-12-26T03:33:38;1.07;;;0.70;;
22480;SDS011;11407;56.964;-2.212;2022-12-26T03:42:37;2.73;;;0.30;;
22480;SDS011;11407;56.964;-2.212;2022-12-26T03:51:14;2.33;;;0.30;;
22480;SDS011;11407;56.964;-2.212;2022-12-26T03:54:11;1.67;;;0.60;;
22480;SDS011;11407;56.964;-2.212;2022-12-26T03:57:03;1.67;;;0.73;;
22480;SDS011;11407;56.964;-2.212;2022-12-26T03:59:59;2.27;;;0.60;;
22480;SDS011;11407;56.964;-2.212;2022-12-26T04:02:47;1.03;;;0.33;;
22480;SDS011;11407;56.964;-2.212;2022-12-26T04:05:35;0.90;;;0.40;;
22480;SDS011;11407;56.964;-2.212;2022-12-26T04:08:24;0.80;;;0.67;;
22480;SDS011;11407;56.964;-2.212;2022-12-26T04:11:12;2.07;;;0.60;;
22480;SDS011;11407;56.964;-2.212;2022-12-26T04:14:06;1.50;;;0.70;;
22480;SDS011;11407;56.964;-2.212;2022-12-26T04:16:59;0.50;;;0.30;;
22480;SDS011;11407;56.964;-2.212;2022-12-26T04:25:20;0.67;;;0.67;;
22480;SDS011;11407;56.964;-2.212;2022-12-26T04:28:07;0.30;;;0.30;;
22480;SDS011;11407;56.964;-2.212;2022-12-26T04:30:54;1.13;;;0.30;;
22480;SDS011;11407;56.964;-2.212;2022-12-26T04:33:44;0.63;;;0.40;;
22480;SDS011;11407;56.964;-2.212;2022-12-26T04:36:36;0.40;;;0.40;;
22480;SDS011;11407;56.964;-2.212;2022-12-26T04:39:28;0.97;;;0.40;;
22480;SDS011;11407;56.964;-2.212;2022-12-26T04:42:15;1.27;;;0.50;;
22480;SDS011;11407;56.964;-2.212;2022-12-26T04:45:01;1.50;;;0.30;;
22480;SDS011;11407;56.964;-2.212;2022-12-26T04:47:29;1.80;;;0.83;;
22480;SDS011;11407;56.964;-2.212;2022-12-26T04:49:56;2.33;;;0.60;;
22480;SDS011;11407;56.964;-2.212;2022-12-26T04:52:37;0.83;;;0.47;;
22480;SDS011;11407;56.964;-2.212;2022-12-26T04:55:19;1.23;;;0.40;;
22480;SDS011;11407;56.964;-2.212;2022-12-26T04:57:44;0.43;;;0.30;;
22480;SDS011;11407;56.964;-2.212;2022-12-26T05:00:10;0.23;;;0.17;;
22480;SDS011;11407;56.964;-2.212;2022-12-26T05:02:36;0.87;;;0.50;;
22480;SDS011;11407;56.964;-2.212;2022-12-26T05:05:20;0.50;;;0.27;;
22480;SDS011;11407;56.964;-2.212;2022-12-26T05:08:04;2.43;;;0.40;;
22480;SDS011;11407;56.964;-2.212;2022-12-26T05:10:48;0.83;;;0.43;;
22480;SDS011;11407;56.964;-2.212;2022-12-26T05:13:13;1.70;;;0.50;;
22480;SDS011;11407;56.964;-2.212;2022-12-26T05:15:39;2.90;;;0.50;;
22480;SDS011;11407;56.964;-2.212;2022-12-26T05:18:22;2.03;;;0.40;;
22480;SDS011;11407;56.964;-2.212;2022-12-26T05:21:17;2.33;;;0.50;;
22480;SDS011;11407;56.964;-2.212;2022-12-26T05:24:02;2.60;;;0.43;;
22480;SDS011;11407;56.964;-2.212;2022-12-26T05:26:46;2.00;;;0.57;;
22480;SDS011;11407;56.964;-2.212;2022-12-26T05:29:30;0.30;;;0.20;;
22480;SDS011;11407;56.964;-2.212;2022-12-26T05:31:56;0.33;;;0.20;;
22480;SDS011;11407;56.964;-2.212;2022-12-26T05:34:21;0.80;;;0.50;;
22480;SDS011;11407;56.964;-2.212;2022-12-26T05:36:47;2.33;;;0.40;;
22480;SDS011;11407;56.964;-2.212;2022-12-26T05:39:15;0.93;;;0.40;;
22480;SDS011;11407;56.964;-2.212;2022-12-26T05:41:41;1.23;;;0.70;;
22480;SDS011;11407;56.964;-2.212;2022-12-26T05:44:07;1.27;;;0.50;;
22480;SDS011;11407;56.964;-2.212;2022-12-26T05:46:33;2.17;;;0.47;;
22480;SDS011;11407;56.964;-2.212;2022-12-26T05:48:59;0.80;;;0.37;;
22480;SDS011;11407;56.964;-2.212;2022-12-26T05:51:25;1.83;;;0.47;;
22480;SDS011;11407;56.964;-2.212;2022-12-26T05:53:51;0.40;;;0.30;;
22480;SDS011;11407;56.964;-2.212;2022-12-26T05:56:16;2.67;;;0.73;;
22480;SDS011;11407;56.964;-2.212;2022-12-26T05:58:43;3.03;;;0.40;;
22480;SDS011;11407;56.964;-2.212;2022-12-26T06:01:10;2.67;;;0.60;;
22480;SDS011;11407;56.964;-2.212;2022-12-26T06:03:37;0.93;;;0.40;;
22480;SDS011;11407;56.964;-2.212;2022-12-26T06:06:05;2.07;;;0.40;;
22480;SDS011;11407;56.964;-2.212;2022-12-26T06:08:31;2.37;;;0.50;;
22480;SDS011;11407;56.964;-2.212;2022-12-26T06:10:57;2.43;;;0.33;;
22480;SDS011;11407;56.964;-2.212;2022-12-26T06:13:23;0.23;;;0.23;;
22480;SDS011;11407;56.964;-2.212;2022-12-26T06:15:48;2.53;;;0.50;;
22480;SDS011;11407;56.964;-2.212;2022-12-26T06:18:14;1.93;;;0.70;;
22480;SDS011;11407;56.964;-2.212;2022-12-26T06:20:39;2.00;;;0.50;;
22480;SDS011;11407;56.964;-2.212;2022-12-26T06:23:05;1.37;;;0.60;;
22480;SDS011;11407;56.964;-2.212;2022-12-26T06:25:31;1.07;;;0.70;;
22480;SDS011;11407;56.964;-2.212;2022-12-26T06:27:56;1.40;;;0.77;;
22480;SDS011;11407;56.964;-2.212;2022-12-26T06:30:22;2.03;;;0.60;;
22480;SDS011;11407;56.964;-2.212;2022-12-26T06:32:47;2.83;;;0.50;;
22480;SDS011;11407;56.964;-2.212;2022-12-26T06:35:13;1.20;;;0.50;;
22480;SDS011;11407;56.964;-2.212;2022-12-26T06:37:38;2.33;;;0.50;;
22480;SDS011;11407;56.964;-2.212;2022-12-26T06:40:04;2.93;;;0.40;;
22480;SDS011;11407;56.964;-2.212;2022-12-26T06:42:30;2.33;;;0.43;;
22480;SDS011;11407;56.964;-2.212;2022-12-26T06:44:55;2.17;;;0.40;;
22480;SDS011;11407;56.964;-2.212;2022-12-26T06:47:21;2.13;;;0.43;;
22480;SDS011;11407;56.964;-2.212;2022-12-26T06:49:46;0.70;;;0.40;;
22480;SDS011;11407;56.964;-2.212;2022-12-26T06:52:12;1.30;;;0.40;;
22480;SDS011;11407;56.964;-2.212;2022-12-26T06:54:38;2.40;;;0.43;;
22480;SDS011;11407;56.964;-2.212;2022-12-26T06:57:04;1.77;;;0.70;;
22480;SDS011;11407;56.964;-2.212;2022-12-26T06:59:30;0.60;;;0.40;;
22480;SDS011;11407;56.964;-2.212;2022-12-26T07:01:55;1.90;;;0.40;;
22480;SDS011;11407;56.964;-2.212;2022-12-26T07:04:21;1.13;;;0.50;;
22480;SDS011;11407;56.964;-2.212;2022-12-26T07:06:46;4.13;;;0.40;;
22480;SDS011;11407;56.964;-2.212;2022-12-26T07:09:13;0.83;;;0.70;;
22480;SDS011;11407;56.964;-2.212;2022-12-26T07:11:44;0.60;;;0.50;;
22480;SDS011;11407;56.964;-2.212;2022-12-26T07:14:12;0.77;;;0.50;;
22480;SDS011;11407;56.964;-2.212;2022-12-26T07:16:38;1.67;;;0.60;;
22480;SDS011;11407;56.964;-2.212;2022-12-26T07:19:05;1.50;;;0.50;;
22480;SDS011;11407;56.964;-2.212;2022-12-26T07:21:31;1.90;;;0.60;;
22480;SDS011;11407;56.964;-2.212;2022-12-26T07:23:57;2.03;;;0.60;;
22480;SDS011;11407;56.964;-2.212;2022-12-26T07:26:23;2.23;;;0.87;;
22480;SDS011;11407;56.964;-2.212;2022-12-26T07:28:56;0.40;;;0.40;;
22480;SDS011;11407;56.964;-2.212;2022-12-26T07:31:23;1.33;;;0.53;;
22480;SDS011;11407;56.964;-2.212;2022-12-26T07:33:49;1.43;;;0.70;;
22480;SDS011;11407;56.964;-2.212;2022-12-26T07:36:16;1.40;;;0.67;;
22480;SDS011;11407;56.964;-2.212;2022-12-26T07:38:42;3.27;;;0.80;;
22480;SDS011;11407;56.964;-2.212;2022-12-26T07:41:08;1.20;;;0.70;;
22480;SDS011;11407;56.964;-2.212;2022-12-26T07:43:52;1.40;;;0.60;;
22480;SDS011;11407;56.964;-2.212;2022-12-26T07:46:17;2.37;;;0.60;;
22480;SDS011;11407;56.964;-2.212;2022-12-26T07:48:43;2.83;;;0.73;;
22480;SDS011;11407;56.964;-2.212;2022-12-26T07:51:08;0.73;;;0.50;;
22480;SDS011;11407;56.964;-2.212;2022-12-26T07:53:34;2.50;;;0.53;;
22480;SDS011;11407;56.964;-2.212;2022-12-26T07:55:59;0.87;;;0.47;;
22480;SDS011;11407;56.964;-2.212;2022-12-26T07:58:25;2.03;;;0.53;;
22480;SDS011;11407;56.964;-2.212;2022-12-26T08:00:50;2.17;;;0.40;;
22480;SDS011;11407;56.964;-2.212;2022-12-26T08:03:16;0.77;;;0.40;;
22480;SDS011;11407;56.964;-2.212;2022-12-26T08:05:45;1.77;;;0.50;;
22480;SDS011;11407;56.964;-2.212;2022-12-26T08:08:14;1.33;;;0.40;;
22480;SDS011;11407;56.964;-2.212;2022-12-26T08:10:40;1.03;;;0.40;;
22480;SDS011;11407;56.964;-2.212;2022-12-26T08:13:05;2.87;;;0.60;;
22480;SDS011;11407;56.964;-2.212;2022-12-26T08:15:31;1.90;;;0.50;;
22480;SDS011;11407;56.964;-2.212;2022-12-26T08:17:57;1.33;;;0.70;;
22480;SDS011;11407;56.964;-2.212;2022-12-26T08:20:22;1.40;;;0.50;;
22480;SDS011;11407;56.964;-2.212;2022-12-26T08:22:47;0.77;;;0.50;;
22480;SDS011;11407;56.964;-2.212;2022-12-26T08:25:13;1.80;;;0.70;;
22480;SDS011;11407;56.964;-2.212;2022-12-26T08:27:38;1.80;;;0.90;;
22480;SDS011;11407;56.964;-2.212;2022-12-26T08:30:04;1.53;;;0.60;;
22480;SDS011;11407;56.964;-2.212;2022-12-26T08:32:30;1.27;;;0.60;;
22480;SDS011;11407;56.964;-2.212;2022-12-26T08:34:55;0.90;;;0.63;;
22480;SDS011;11407;56.964;-2.212;2022-12-26T08:37:21;1.47;;;0.60;;
22480;SDS011;11407;56.964;-2.212;2022-12-26T08:39:49;1.93;;;0.53;;
22480;SDS011;11407;56.964;-2.212;2022-12-26T08:42:16;2.90;;;0.50;;
22480;SDS011;11407;56.964;-2.212;2022-12-26T08:44:42;0.80;;;0.40;;
22480;SDS011;11407;56.964;-2.212;2022-12-26T08:47:08;1.23;;;0.50;;
22480;SDS011;11407;56.964;-2.212;2022-12-26T08:49:33;5.07;;;0.90;;
22480;SDS011;11407;56.964;-2.212;2022-12-26T08:51:58;2.00;;;0.50;;
22480;SDS011;11407;56.964;-2.212;2022-12-26T08:54:24;1.83;;;0.73;;
22480;SDS011;11407;56.964;-2.212;2022-12-26T08:56:49;1.10;;;0.60;;
22480;SDS011;11407;56.964;-2.212;2022-12-26T08:59:15;1.30;;;0.60;;
22480;SDS011;11407;56.964;-2.212;2022-12-26T09:01:40;2.53;;;0.47;;
22480;SDS011;11407;56.964;-2.212;2022-12-26T09:04:06;0.73;;;0.60;;
22480;SDS011;11407;56.964;-2.212;2022-12-26T09:06:32;2.77;;;0.70;;
22480;SDS011;11407;56.964;-2.212;2022-12-26T09:08:59;0.80;;;0.50;;
22480;SDS011;11407;56.964;-2.212;2022-12-26T09:11:25;2.40;;;0.70;;
22480;SDS011;11407;56.964;-2.212;2022-12-26T09:13:51;1.63;;;0.70;;
22480;SDS011;11407;56.964;-2.212;2022-12-26T09:16:18;2.23;;;0.73;;
22480;SDS011;11407;56.964;-2.212;2022-12-26T09:18:46;1.97;;;0.60;;
22480;SDS011;11407;56.964;-2.212;2022-12-26T09:21:13;1.13;;;0.80;;
22480;SDS011;11407;56.964;-2.212;2022-12-26T09:23:39;1.60;;;0.57;;
22480;SDS011;11407;56.964;-2.212;2022-12-26T09:26:07;3.00;;;0.50;;
22480;SDS011;11407;56.964;-2.212;2022-12-26T09:28:34;1.60;;;0.60;;
22480;SDS011;11407;56.964;-2.212;2022-12-26T09:31:09;1.43;;;0.50;;
22480;SDS011;11407;56.964;-2.212;2022-12-26T09:33:36;1.47;;;0.60;;
22480;SDS011;11407;56.964;-2.212;2022-12-26T09:36:06;1.13;;;0.50;;
22480;SDS011;11407;56.964;-2.212;2022-12-26T09:38:35;0.57;;;0.40;;
22480;SDS011;11407;56.964;-2.212;2022-12-26T09:43:49;4.30;;;0.70;;
22480;SDS011;11407;56.964;-2.212;2022-12-26T09:46:39;0.40;;;0.40;;
22480;SDS011;11407;56.964;-2.212;2022-12-26T09:49:31;0.67;;;0.40;;
22480;SDS011;11407;56.964;-2.212;2022-12-26T09:52:03;0.40;;;0.40;;
22480;SDS011;11407;56.964;-2.212;2022-12-26T09:57:06;2.43;;;0.70;;
22480;SDS011;11407;56.964;-2.212;2022-12-26T09:59:44;1.23;;;0.50;;
22480;SDS011;11407;56.964;-2.212;2022-12-26T10:02:17;0.60;;;0.60;;
22480;SDS011;11407;56.964;-2.212;2022-12-26T10:04:45;2.93;;;0.67;;
22480;SDS011;11407;56.964;-2.212;2022-12-26T10:07:16;1.53;;;0.50;;
22480;SDS011;11407;56.964;-2.212;2022-12-26T10:09:46;3.17;;;0.70;;
22480;SDS011;11407;56.964;-2.212;2022-12-26T10:15:10;1.10;;;0.50;;
22480;SDS011;11407;56.964;-2.212;2022-12-26T10:17:45;1.50;;;0.70;;
22480;SDS011;11407;56.964;-2.212;2022-12-26T10:20:21;1.50;;;0.60;;
22480;SDS011;11407;56.964;-2.212;2022-12-26T10:22:55;3.10;;;0.90;;
22480;SDS011;11407;56.964;-2.212;2022-12-26T10:25:48;1.03;;;0.57;;
22480;SDS011;11407;56.964;-2.212;2022-12-26T10:28:28;0.93;;;0.50;;
22480;SDS011;11407;56.964;-2.212;2022-12-26T10:31:01;1.60;;;0.80;;
22480;SDS011;11407;56.964;-2.212;2022-12-26T10:33:48;0.73;;;0.60;;
22480;SDS011;11407;56.964;-2.212;2022-12-26T10:36:32;0.83;;;0.60;;
22480;SDS011;11407;56.964;-2.212;2022-12-26T10:39:03;0.90;;;0.60;;
22480;SDS011;11407;56.964;-2.212;2022-12-26T10:41:41;2.60;;;0.90;;
22480;SDS011;11407;56.964;-2.212;2022-12-26T10:44:10;2.07;;;0.90;;
22480;SDS011;11407;56.964;-2.212;2022-12-26T10:46:41;2.60;;;1.10;;
22480;SDS011;11407;56.964;-2.212;2022-12-26T10:49:09;1.00;;;0.80;;
22480;SDS011;11407;56.964;-2.212;2022-12-26T10:51:37;3.67;;;1.10;;
22480;SDS011;11407;56.964;-2.212;2022-12-26T10:54:07;1.63;;;1.00;;
22480;SDS011;11407;56.964;-2.212;2022-12-26T10:56:37;1.30;;;1.00;;
22480;SDS011;11407;56.964;-2.212;2022-12-26T10:59:03;1.93;;;0.90;;
22480;SDS011;11407;56.964;-2.212;2022-12-26T11:01:35;1.60;;;1.00;;
22480;SDS011;11407;56.964;-2.212;2022-12-26T11:04:13;0.90;;;0.70;;
22480;SDS011;11407;56.964;-2.212;2022-12-26T11:06:44;1.40;;;0.70;;
22480;SDS011;11407;56.964;-2.212;2022-12-26T11:11:55;1.30;;;0.80;;
22480;SDS011;11407;56.964;-2.212;2022-12-26T11:14:42;0.90;;;0.70;;
22480;SDS011;11407;56.964;-2.212;2022-12-26T11:17:11;3.37;;;0.80;;
22480;SDS011;11407;56.964;-2.212;2022-12-26T11:19:48;1.00;;;0.60;;
22480;SDS011;11407;56.964;-2.212;2022-12-26T11:22:21;2.00;;;0.70;;
22480;SDS011;11407;56.964;-2.212;2022-12-26T11:27:35;1.97;;;0.83;;
22480;SDS011;11407;56.964;-2.212;2022-12-26T11:32:40;3.40;;;0.90;;
22480;SDS011;11407;56.964;-2.212;2022-12-26T11:35:18;1.27;;;0.50;;
22480;SDS011;11407;56.964;-2.212;2022-12-26T11:37:51;2.63;;;0.63;;
22480;SDS011;11407;56.964;-2.212;2022-12-26T11:40:22;0.80;;;0.70;;
22480;SDS011;11407;56.964;-2.212;2022-12-26T11:42:55;2.30;;;0.70;;
22480;SDS011;11407;56.964;-2.212;2022-12-26T11:45:24;1.73;;;0.60;;
22480;SDS011;11407;56.964;-2.212;2022-12-26T11:47:52;2.47;;;0.60;;
22480;SDS011;11407;56.964;-2.212;2022-12-26T11:50:21;2.67;;;0.70;;
22480;SDS011;11407;56.964;-2.212;2022-12-26T11:52:51;0.77;;;0.70;;
22480;SDS011;11407;56.964;-2.212;2022-12-26T12:03:08;4.40;;;2.17;;
22480;SDS011;11407;56.964;-2.212;2022-12-26T12:08:21;6.80;;;2.50;;
22480;SDS011;11407;56.964;-2.212;2022-12-26T12:35:50;1.57;;;1.30;;
22480;SDS011;11407;56.964;-2.212;2022-12-26T12:49:05;2.53;;;1.70;;
22480;SDS011;11407;56.964;-2.212;2022-12-26T12:51:45;5.27;;;1.77;;
22480;SDS011;11407;56.964;-2.212;2022-12-26T12:57:24;1.53;;;0.90;;
22480;SDS011;11407;56.964;-2.212;2022-12-26T13:07:59;1.87;;;0.70;;
22480;SDS011;11407;56.964;-2.212;2022-12-26T13:10:31;3.93;;;1.20;;
22480;SDS011;11407;56.964;-2.212;2022-12-26T13:13:06;3.13;;;1.60;;
22480;SDS011;11407;56.964;-2.212;2022-12-26T13:15:41;5.23;;;1.60;;
22480;SDS011;11407;56.964;-2.212;2022-12-26T13:18:13;4.70;;;1.70;;
22480;SDS011;11407;56.964;-2.212;2022-12-26T13:20:50;3.23;;;1.23;;
22480;SDS011;11407;56.964;-2.212;2022-12-26T13:23:21;2.73;;;1.13;;
22480;SDS011;11407;56.964;-2.212;2022-12-26T13:26:16;5.07;;;1.47;;
22480;SDS011;11407;56.964;-2.212;2022-12-26T13:29:10;4.47;;;1.37;;
22480;SDS011;11407;56.964;-2.212;2022-12-26T13:31:35;2.80;;;1.47;;
22480;SDS011;11407;56.964;-2.212;2022-12-26T13:34:03;2.73;;;1.13;;
22480;SDS011;11407;56.964;-2.212;2022-12-26T13:36:42;4.33;;;1.47;;
22480;SDS011;11407;56.964;-2.212;2022-12-26T13:41:36;6.43;;;2.13;;
22480;SDS011;11407;56.964;-2.212;2022-12-26T13:44:28;2.57;;;1.30;;
22480;SDS011;11407;56.964;-2.212;2022-12-26T13:46:55;2.50;;;1.47;;
22480;SDS011;11407;56.964;-2.212;2022-12-26T13:49:42;3.80;;;1.63;;
22480;SDS011;11407;56.964;-2.212;2022-12-26T13:55:28;5.40;;;2.00;;
22480;SDS011;11407;56.964;-2.212;2022-12-26T13:57:27;3.47;;;1.57;;
22480;SDS011;11407;56.964;-2.212;2022-12-26T14:20:12;4.07;;;1.87;;
22480;SDS011;11407;56.964;-2.212;2022-12-26T14:25:19;4.17;;;2.30;;
22480;SDS011;11407;56.964;-2.212;2022-12-26T14:37:50;5.30;;;2.50;;
22480;SDS011;11407;56.964;-2.212;2022-12-26T14:40:28;4.17;;;2.90;;
22480;SDS011;11407;56.964;-2.212;2022-12-26T15:00:55;6.23;;;2.60;;
22480;SDS011;11407;56.964;-2.212;2022-12-26T15:06:45;7.40;;;2.47;;
22480;SDS011;11407;56.964;-2.212;2022-12-26T15:09:27;4.03;;;2.67;;
22480;SDS011;11407;56.964;-2.212;2022-12-26T15:31:37;5.17;;;3.07;;
22480;SDS011;11407;56.964;-2.212;2022-12-26T15:37:32;2.33;;;1.90;;
22480;SDS011;11407;56.964;-2.212;2022-12-26T15:43:01;2.70;;;1.70;;
22480;SDS011;11407;56.964;-2.212;2022-12-26T15:45:47;3.27;;;1.83;;
22480;SDS011;11407;56.964;-2.212;2022-12-26T15:48:28;4.10;;;1.90;;
22480;SDS011;11407;56.964;-2.212;2022-12-26T15:59:10;2.40;;;1.60;;
22480;SDS011;11407;56.964;-2.212;2022-12-26T16:01:44;3.03;;;1.83;;
22480;SDS011;11407;56.964;-2.212;2022-12-26T16:07:07;4.93;;;2.30;;
22480;SDS011;11407;56.964;-2.212;2022-12-26T16:09:43;2.50;;;2.20;;
22480;SDS011;11407;56.964;-2.212;2022-12-26T16:12:18;1.93;;;1.50;;
22480;SDS011;11407;56.964;-2.212;2022-12-26T16:14:58;2.10;;;1.40;;
22480;SDS011;11407;56.964;-2.212;2022-12-26T16:17:33;2.70;;;1.67;;
22480;SDS011;11407;56.964;-2.212;2022-12-26T16:19:58;2.30;;;1.50;;
22480;SDS011;11407;56.964;-2.212;2022-12-26T16:22:29;2.07;;;1.80;;
22480;SDS011;11407;56.964;-2.212;2022-12-26T16:25:11;2.67;;;2.00;;
22480;SDS011;11407;56.964;-2.212;2022-12-26T16:27:39;3.90;;;2.40;;
22480;SDS011;11407;56.964;-2.212;2022-12-26T16:30:06;4.50;;;2.87;;
22480;SDS011;11407;56.964;-2.212;2022-12-26T16:32:38;2.90;;;2.00;;
22480;SDS011;11407;56.964;-2.212;2022-12-26T16:35:12;4.57;;;3.27;;
22480;SDS011;11407;56.964;-2.212;2022-12-26T16:37:41;3.60;;;2.43;;
22480;SDS011;11407;56.964;-2.212;2022-12-26T16:40:15;3.50;;;1.80;;
22480;SDS011;11407;56.964;-2.212;2022-12-26T16:42:53;3.27;;;2.37;;
22480;SDS011;11407;56.964;-2.212;2022-12-26T16:45:24;5.37;;;3.10;;
22480;SDS011;11407;56.964;-2.212;2022-12-26T16:47:51;4.17;;;2.97;;
22480;SDS011;11407;56.964;-2.212;2022-12-26T16:50:19;3.33;;;2.33;;
22480;SDS011;11407;56.964;-2.212;2022-12-26T16:52:52;2.73;;;1.67;;
22480;SDS011;11407;56.964;-2.212;2022-12-26T16:55:39;2.20;;;1.60;;
22480;SDS011;11407;56.964;-2.212;2022-12-26T16:58:26;5.13;;;3.17;;
22480;SDS011;11407;56.964;-2.212;2022-12-26T17:01:12;5.60;;;3.20;;
22480;SDS011;11407;56.964;-2.212;2022-12-26T17:03:53;3.70;;;2.20;;
22480;SDS011;11407;56.964;-2.212;2022-12-26T17:06:26;3.63;;;2.20;;
22480;SDS011;11407;56.964;-2.212;2022-12-26T17:08:52;3.73;;;2.60;;
22480;SDS011;11407;56.964;-2.212;2022-12-26T17:11:26;3.53;;;2.40;;
22480;SDS011;11407;56.964;-2.212;2022-12-26T17:13:56;5.47;;;2.90;;
22480;SDS011;11407;56.964;-2.212;2022-12-26T17:16:24;7.27;;;3.10;;
22480;SDS011;11407;56.964;-2.212;2022-12-26T17:18:56;3.73;;;2.60;;
22480;SDS011;11407;56.964;-2.212;2022-12-26T17:21:32;4.23;;;2.70;;
22480;SDS011;11407;56.964;-2.212;2022-12-26T17:26:32;4.20;;;2.67;;
22480;SDS011;11407;56.964;-2.212;2022-12-26T17:29:00;5.33;;;3.17;;
22480;SDS011;11407;56.964;-2.212;2022-12-26T17:31:37;5.57;;;3.10;;
22480;SDS011;11407;56.964;-2.212;2022-12-26T17:34:05;7.23;;;4.37;;
22480;SDS011;11407;56.964;-2.212;2022-12-26T17:36:38;10.63;;;5.73;;
22480;SDS011;11407;56.964;-2.212;2022-12-26T17:39:37;10.37;;;5.67;;
22480;SDS011;11407;56.964;-2.212;2022-12-26T17:41:56;13.50;;;7.27;;
22480;SDS011;11407;56.964;-2.212;2022-12-26T17:44:37;11.10;;;6.37;;
22480;SDS011;11407;56.964;-2.212;2022-12-26T17:47:24;9.93;;;5.33;;
22480;SDS011;11407;56.964;-2.212;2022-12-26T17:49:52;6.83;;;3.53;;
22480;SDS011;11407;56.964;-2.212;2022-12-26T17:52:19;6.00;;;2.90;;
22480;SDS011;11407;56.964;-2.212;2022-12-26T17:54:47;5.07;;;2.90;;
22480;SDS011;11407;56.964;-2.212;2022-12-26T17:57:24;4.43;;;2.50;;
22480;SDS011;11407;56.964;-2.212;2022-12-26T17:59:52;5.57;;;3.00;;
22480;SDS011;11407;56.964;-2.212;2022-12-26T18:02:18;8.83;;;4.90;;
22480;SDS011;11407;56.964;-2.212;2022-12-26T18:04:44;8.30;;;4.60;;
22480;SDS011;11407;56.964;-2.212;2022-12-26T18:07:11;11.07;;;5.80;;
22480;SDS011;11407;56.964;-2.212;2022-12-26T18:09:41;14.00;;;6.53;;
22480;SDS011;11407;56.964;-2.212;2022-12-26T18:12:09;14.47;;;7.17;;
22480;SDS011;11407;56.964;-2.212;2022-12-26T18:14:38;11.00;;;4.97;;
22480;SDS011;11407;56.964;-2.212;2022-12-26T18:17:04;6.80;;;3.50;;
22480;SDS011;11407;56.964;-2.212;2022-12-26T18:19:29;7.67;;;3.80;;
22480;SDS011;11407;56.964;-2.212;2022-12-26T18:21:55;5.23;;;2.60;;
22480;SDS011;11407;56.964;-2.212;2022-12-26T18:24:20;6.10;;;2.70;;
22480;SDS011;11407;56.964;-2.212;2022-12-26T18:26:45;4.00;;;2.53;;
22480;SDS011;11407;56.964;-2.212;2022-12-26T18:29:12;4.67;;;2.60;;
22480;SDS011;11407;56.964;-2.212;2022-12-26T18:31:38;5.00;;;2.97;;
22480;SDS011;11407;56.964;-2.212;2022-12-26T18:34:03;5.13;;;2.60;;
22480;SDS011;11407;56.964;-2.212;2022-12-26T18:36:30;4.47;;;3.40;;
22480;SDS011;11407;56.964;-2.212;2022-12-26T18:39:00;6.83;;;4.03;;